Pacific Dawn — 2AGH7 — position and weather

sailwx.info

Track history (hours):
 
Tides and Currents Weather Stations Pressure Air Temp Water Temp Dewpoint Dewpoint Depression Visibility Wind Speed Wind Dir Waves Ship Positions

Pacific Dawn

Last reported at 2015-Mar-28 20:00 UTC. Time now 2015-Mar-29 09:22 UTC.
Position S 23°54' E 152°48'.

Length 245 m; draft 8.4 m.

Type: Ship. MMSI: 235059368.

Wind from 070 at 15 knots

Waves 0.5 meters (2 feet), 4 second period

Barometer 1017.9 mb
Air temperature 25.0 ° C
Visibility: greater than 10.8 NM
Dewpoint 21.2 ° C
Water temperature 28.0 ° C

Date/timePositionNaut miles runAvg speedWind from/ knotsBaromVisibWave heightAir tempDewpointWater temp
2015-Mar-28 20:00S 23°54' E 152°48'14715.1 070 / 151017.910.8 0.525.021.228.0
2015-Mar-28 10:14S 26°18' E 153°22'2716.0
2015-Mar-28 08:33S 26°43' E 153°10'1313.3
2015-Mar-28 07:33S 26°56' E 153°12'1616.4
2015-Mar-28 06:33S 27°10' E 153°21'1514.8
2015-Mar-28 05:33S 27°22' E 153°10'7 7.0
2015-Mar-28 04:33S 27°27' E 153°05'1 0.8
2015-Mar-28 03:30S 27°26' E 153°04'0 0.0
2015-Mar-28 02:30S 27°26' E 153°04'0 0.0
2015-Mar-28 01:30S 27°26' E 153°04'0 0.0
2015-Mar-28 00:30S 27°26' E 153°04'0 0.0
2015-Mar-27 23:24S 27°26' E 153°04'0 0.0
2015-Mar-27 22:30S 27°26' E 153°04'0 0.0
2015-Mar-27 21:30S 27°26' E 153°04'0 0.0
2015-Mar-27 20:30S 27°26' E 153°04'0 0.0
2015-Mar-27 19:33S 27°26' E 153°04'5 5.4
2015-Mar-27 18:34S 27°24' E 153°09'9 9.1
2015-Mar-27 17:33S 27°16' E 153°15'1212.0
2015-Mar-27 16:33S 27°05' E 153°18'1716.9
2015-Mar-27 15:33S 26°50' E 153°09'1110.6
2015-Mar-27 14:33S 26°41' E 153°16'2113.9
2015-Mar-27 13:04S 26°32' E 153°37'  
2015-Mar-21 10:27S 26°37' E 153°34'1718.5
2015-Mar-21 09:33S 26°40' E 153°16'1211.7
2015-Mar-21 08:31S 26°51' E 153°09'1616.2
2015-Mar-21 07:32S 27°04' E 153°18'1414.0
2015-Mar-21 06:33S 27°18' E 153°13'1010.0
2015-Mar-21 05:32S 27°26' E 153°07'3 0.9
2015-Mar-21 02:26S 27°26' E 153°04'0 0.0
2015-Mar-21 01:29S 27°26' E 153°04'0 0.0
2015-Mar-21 00:32S 27°26' E 153°04'0 0.0
2015-Mar-20 23:32S 27°26' E 153°04'0 0.0
2015-Mar-20 22:26S 27°26' E 153°04'0 0.0
2015-Mar-20 21:32S 27°26' E 153°04'0 0.0
2015-Mar-20 20:32S 27°26' E 153°04'0 0.0
2015-Mar-20 19:32S 27°26' E 153°04'5 4.8
2015-Mar-20 18:34S 27°25' E 153°09'1010.3
2015-Mar-20 17:34S 27°16' E 153°16'1313.4
2015-Mar-20 16:34S 27°03' E 153°17'1515.2
2015-Mar-20 15:34S 26°50' E 153°09'1110.7
2015-Mar-20 14:33S 26°41' E 153°15'1212.4
2015-Mar-20 13:33S 26°38' E 153°29'1313.5
2015-Mar-20 12:33S 26°33' E 153°43'1514.7
2015-Mar-20 11:33S 26°28' E 153°58'1514.6
2015-Mar-20 10:33S 26°23' E 154°14'  
Track history (hours):
 
Tides and Currents Weather Stations Pressure Air Temp Water Temp Dewpoint Dewpoint Depression Visibility Wind Speed Wind Dir Waves Ship Positions

Pacific Dawn

Last reported at 2015-Mar-28 20:00 UTC. Time now 2015-Mar-29 09:22 UTC.
Position S 23°54' E 152°48'.

Length 245 m; draft 8.4 m.

Type: Ship. MMSI: 235059368.

Wind from 070 at 15 knots

Waves 0.5 meters (2 feet), 4 second period

Barometer 1017.9 mb
Air temperature 25.0 ° C
Visibility: greater than 10.8 NM
Dewpoint 21.2 ° C
Water temperature 28.0 ° C

Date/timePositionNaut miles runAvg speedWind from/ knotsBaromVisibWave heightAir tempDewpointWater temp
2015-Mar-28 20:00S 23°54' E 152°48'14715.1 070 / 151017.910.8 0.525.021.228.0
2015-Mar-28 10:14S 26°18' E 153°22'2716.0
2015-Mar-28 08:33S 26°43' E 153°10'1313.3
2015-Mar-28 07:33S 26°56' E 153°12'1616.4
2015-Mar-28 06:33S 27°10' E 153°21'1514.8
2015-Mar-28 05:33S 27°22' E 153°10'7 7.0
2015-Mar-28 04:33S 27°27' E 153°05'1 0.8
2015-Mar-28 03:30S 27°26' E 153°04'0 0.0
2015-Mar-28 02:30S 27°26' E 153°04'0 0.0
2015-Mar-28 01:30S 27°26' E 153°04'0 0.0
2015-Mar-28 00:30S 27°26' E 153°04'0 0.0
2015-Mar-27 23:24S 27°26' E 153°04'0 0.0
2015-Mar-27 22:30S 27°26' E 153°04'0 0.0
2015-Mar-27 21:30S 27°26' E 153°04'0 0.0
2015-Mar-27 20:30S 27°26' E 153°04'0 0.0
2015-Mar-27 19:33S 27°26' E 153°04'5 5.4
2015-Mar-27 18:34S 27°24' E 153°09'9 9.1
2015-Mar-27 17:33S 27°16' E 153°15'1212.0
2015-Mar-27 16:33S 27°05' E 153°18'1716.9
2015-Mar-27 15:33S 26°50' E 153°09'1110.6
2015-Mar-27 14:33S 26°41' E 153°16'2113.9
2015-Mar-27 13:04S 26°32' E 153°37'  
2015-Mar-21 10:27S 26°37' E 153°34'1718.5
2015-Mar-21 09:33S 26°40' E 153°16'1211.7
2015-Mar-21 08:31S 26°51' E 153°09'1616.2
2015-Mar-21 07:32S 27°04' E 153°18'1414.0
2015-Mar-21 06:33S 27°18' E 153°13'1010.0
2015-Mar-21 05:32S 27°26' E 153°07'3 0.9
2015-Mar-21 02:26S 27°26' E 153°04'0 0.0
2015-Mar-21 01:29S 27°26' E 153°04'0 0.0
2015-Mar-21 00:32S 27°26' E 153°04'0 0.0
2015-Mar-20 23:32S 27°26' E 153°04'0 0.0
2015-Mar-20 22:26S 27°26' E 153°04'0 0.0
2015-Mar-20 21:32S 27°26' E 153°04'0 0.0
2015-Mar-20 20:32S 27°26' E 153°04'0 0.0
2015-Mar-20 19:32S 27°26' E 153°04'5 4.8
2015-Mar-20 18:34S 27°25' E 153°09'1010.3
2015-Mar-20 17:34S 27°16' E 153°16'1313.4
2015-Mar-20 16:34S 27°03' E 153°17'1515.2
2015-Mar-20 15:34S 26°50' E 153°09'1110.7
2015-Mar-20 14:33S 26°41' E 153°15'1212.4
2015-Mar-20 13:33S 26°38' E 153°29'1313.5
2015-Mar-20 12:33S 26°33' E 153°43'1514.7
2015-Mar-20 11:33S 26°28' E 153°58'1514.6
2015-Mar-20 10:33S 26°23' E 154°14'  

Dump ship's entire track history